Local Weather Dagens Jour: Gunnar Frisk Saturday 27th of November
Flygplats METAR TAF
Airport METAR TAF
ESSL - Linköping271520Z 05009KT 9999 FEW036 M00/M02 Q1000=271530Z 2716/2719 04008KT CAVOK=
ESCF - Malmen271520Z AUTO 04009KT 9999 OVC100/// M00/M02 Q1000=NO VALID TAF PUBLISHED
ESSP - Norrköping271520Z AUTO 05012KT 9999 BKN027/// 01/M03 Q1001=NO VALID TAF PUBLISHED
ESGJ - Jönköping271520Z AUTO 06010KT 9999 BKN011/// BKN014/// OVC018/// 00/M01 Q0997=NO VALID TAF PUBLISHED
ESKN - Skavsta271520Z 03010KT 360V060 CAVOK M00/M03 Q1001=271130Z 2712/2812 03009KT 9999 SCT030=
ESSV - Visby271520Z AUTO 06014KT 9999 BKN014/// OVC020/// 03/01 Q0998=AMD 271325Z 2713/2715 07012KT 9999 BKN020 PROB40 2713/2715 BKN011=
ESGG - Göteborg271520Z 06009KT 9999 -SN SCT008 BKN051 M00/M01 Q0997=271130Z 2712/2812 06010KT 6000 -SN BKN020 TEMPO 2712/2809 1200 SHSN VV008 BKN030CB=
FLEET STATUS
Flygplan Tid till service Tid till flygstopp Flygtid Landningar
Aircraft To service To stop Total time Landings
SE-IUD37.2 h42.2 h12 512.8 h25 639 st.
(1) Horisontgyro u/s (hänger, felaktig referens till horisont)
SE-KIT-9.6 h0.4 h12 709.6 h25 031 st.
(1) kunde tillfälligt inte höra på COM1, sända gick bra
(2) DME display syns delvis inte i dagsljus
(3) 0.4 timmar till flygstopp
SE-KMH29.6 h39.6 h16 670.4 h61 972 st.
(1) Höger däck har slitage på en liten yta
SE-LRL30.3 h40.3 h1 419.7 h2 715 st.
SE-MEB18.8 h28.8 h1 781.2 h5 428 st.
SE-MEKN/AN/A3 808.0 h3 831 st.
(1) Stor deviation på kompassen (~-50 grader)
(2) Båda brytkopplingarna är trasiga, byt båda två då koplingarna ofta går isär.
(3) Glappkontakt radio och interkom vänster sida.
PPR
Ankomst Avgång Flygplan Namn Bränsle
Arrival Departure Aircraft Name Fuel
NOTAM
>>> ESSL/LINKOPING/SAAB <<<
>>> ESSP/NORRKOPING/KUNGSANGEN <<<
>>> ESCF/LINKOPING/MALMEN <<<